createdAt,value
2018-09-10T00:01:16.427Z,5.27
2018-09-10T00:03:44.554Z,5.80
2018-09-10T00:06:12.959Z,5.87
2018-09-10T00:08:40.920Z,5.80
2018-09-10T00:11:31.553Z,7.57
2018-09-10T00:13:59.488Z,5.73
2018-09-10T00:16:27.729Z,5.13
2018-09-10T00:18:55.689Z,4.80
2018-09-10T00:21:23.607Z,5.37
2018-09-10T00:23:52.237Z,5.27
2018-09-10T00:26:20.182Z,5.30
2018-09-10T00:28:48.085Z,5.63
2018-09-10T00:31:16.018Z,5.73
2018-09-10T00:33:45.099Z,5.67
2018-09-10T00:36:13.605Z,5.57
2018-09-10T00:38:42.198Z,5.20
2018-09-10T00:41:10.102Z,5.80
2018-09-10T00:43:38.033Z,5.60
2018-09-10T00:46:06.700Z,4.63
2018-09-10T00:48:34.629Z,6.03
2018-09-10T00:51:02.592Z,5.40
2018-09-10T00:53:30.519Z,5.63
2018-09-10T00:55:59.181Z,5.77
2018-09-10T00:58:27.115Z,5.53
2018-09-10T01:00:55.005Z,5.40
2018-09-10T01:03:22.913Z,5.40
2018-09-10T01:05:50.822Z,5.60
2018-09-10T01:08:19.539Z,5.27
2018-09-10T01:10:47.474Z,5.40
2018-09-10T01:13:15.408Z,5.00
2018-09-10T01:15:43.728Z,5.37
2018-09-10T01:18:11.673Z,4.97
2018-09-10T01:20:39.652Z,4.17
2018-09-10T01:23:07.614Z,5.27
2018-09-10T01:25:35.985Z,5.33
2018-09-10T01:28:03.981Z,5.93
2018-09-10T01:30:31.941Z,7.07
2018-09-10T01:33:00.000Z,6.17
2018-09-10T01:35:31.813Z,5.37
2018-09-10T01:37:59.830Z,4.83
2018-09-10T01:40:27.814Z,7.00
2018-09-10T01:42:55.739Z,5.30
2018-09-10T01:45:23.603Z,5.60
2018-09-10T01:47:51.508Z,5.70
2018-09-10T01:50:19.504Z,5.47
2018-09-10T01:52:47.410Z,5.53
2018-09-10T01:55:15.970Z,5.17
2018-09-10T01:57:45.140Z,5.23
2018-09-10T02:00:13.081Z,5.20
2018-09-10T02:02:40.988Z,5.60
2018-09-10T02:05:08.975Z,5.57
2018-09-10T02:07:37.949Z,6.07
2018-09-10T02:10:06.334Z,4.80
2018-09-10T02:12:34.266Z,5.20
2018-09-10T02:15:02.171Z,5.40
2018-09-10T02:17:30.851Z,6.03
2018-09-10T02:19:58.735Z,6.03
2018-09-10T02:22:26.605Z,5.97
2018-09-10T02:24:54.484Z,5.83
2018-09-10T02:27:22.434Z,5.40
2018-09-10T02:29:50.494Z,6.50
2018-09-10T02:32:18.383Z,6.03
2018-09-10T02:34:46.951Z,5.77
2018-09-10T02:37:14.844Z,5.67
2018-09-10T02:39:42.809Z,5.67
2018-09-10T02:42:10.738Z,5.27
2018-09-10T02:44:39.389Z,5.50
2018-09-10T02:47:08.369Z,5.33
2018-09-10T02:49:36.285Z,5.27
2018-09-10T02:52:05.038Z,6.03
2018-09-10T02:54:33.053Z,6.77
2018-09-10T02:57:01.915Z,6.20
2018-09-10T02:59:30.508Z,7.23
2018-09-10T03:01:58.398Z,5.63
2018-09-10T03:04:26.419Z,5.80
2018-09-10T03:06:54.855Z,5.07
2018-09-10T03:09:22.929Z,5.20
2018-09-10T03:11:50.850Z,5.07
2018-09-10T03:14:19.641Z,5.60
2018-09-10T03:16:47.589Z,5.00
2018-09-10T03:19:16.845Z,7.57
2018-09-10T03:21:44.826Z,5.60
2018-09-10T03:24:13.778Z,6.10
2018-09-10T03:26:42.231Z,5.03
2018-09-10T03:29:10.156Z,6.20
2018-09-10T03:31:38.113Z,5.67
2018-09-10T03:34:06.225Z,5.87
2018-09-10T03:36:34.251Z,6.63
2018-09-10T03:39:02.323Z,5.57
2018-09-10T03:41:30.258Z,6.83
2018-09-10T03:43:58.183Z,6.47
2018-09-10T03:46:26.098Z,6.53
2018-09-10T03:48:53.983Z,5.33
2018-09-10T03:51:21.854Z,6.80
2018-09-10T03:53:50.293Z,5.17
2018-09-10T03:56:18.237Z,6.40
2018-09-10T03:58:46.129Z,5.80
2018-09-10T04:01:14.081Z,6.30
2018-09-10T04:03:42.331Z,5.90
2018-09-10T04:06:10.234Z,6.00
2018-09-10T04:08:38.688Z,6.73
2018-09-10T04:11:06.653Z,5.67
2018-09-10T04:13:34.594Z,6.17
2018-09-10T04:16:02.606Z,6.20
2018-09-10T04:18:30.638Z,6.50
2018-09-10T04:20:58.642Z,6.63
2018-09-10T04:23:26.549Z,6.27
2018-09-10T04:25:55.201Z,6.23
2018-09-10T04:28:23.026Z,6.17
2018-09-10T04:30:50.956Z,6.60
2018-09-10T04:33:18.876Z,6.17
2018-09-10T04:35:46.792Z,7.10
2018-09-10T04:38:15.023Z,7.07
2018-09-10T04:40:43.084Z,7.07
2018-09-10T04:43:11.875Z,5.77
2018-09-10T04:45:39.803Z,6.70
2018-09-10T04:48:08.073Z,5.37
2018-09-10T04:50:36.005Z,7.07
2018-09-10T04:53:03.894Z,5.47
2018-09-10T04:55:31.949Z,5.90
2018-09-10T04:58:00.439Z,5.63
2018-09-10T05:00:28.344Z,5.83
2018-09-10T05:02:56.308Z,6.37
2018-09-10T05:05:24.249Z,5.47
2018-09-10T05:07:52.867Z,8.20
2018-09-10T05:10:21.267Z,6.70
2018-09-10T05:12:49.323Z,5.60
2018-09-10T05:15:17.252Z,7.23
2018-09-10T05:17:45.204Z,6.70
2018-09-10T05:20:13.154Z,6.73
2018-09-10T05:22:41.375Z,7.40
2018-09-10T05:25:09.300Z,6.53
2018-09-10T05:27:37.231Z,7.23
2018-09-10T05:30:05.291Z,8.30
2018-09-10T05:32:33.541Z,7.97
2018-09-10T05:35:01.490Z,8.30
2018-09-10T05:37:29.413Z,8.17
2018-09-10T05:39:57.755Z,8.03
2018-09-10T05:42:26.651Z,8.00
2018-09-10T05:44:54.582Z,8.53
2018-09-10T05:47:22.514Z,8.40
2018-09-10T05:49:50.946Z,7.50
2018-09-10T05:52:18.899Z,8.47
2018-09-10T05:54:46.803Z,8.20
2018-09-10T05:57:15.055Z,8.30
2018-09-10T05:59:43.027Z,8.40
2018-09-10T06:02:10.967Z,9.57
2018-09-10T06:04:38.876Z,9.63
2018-09-10T06:07:06.819Z,10.00
2018-09-10T06:09:35.160Z,9.90
2018-09-10T06:12:03.098Z,10.13
2018-09-10T06:14:31.016Z,10.20
2018-09-10T06:16:58.961Z,9.00
2018-09-10T06:19:27.701Z,8.90
2018-09-10T06:21:55.756Z,8.57
2018-09-10T06:24:24.671Z,8.70
2018-09-10T06:26:52.604Z,8.70
2018-09-10T06:29:21.235Z,9.80
2018-09-10T06:31:49.203Z,7.50
2018-09-10T06:34:17.396Z,8.10
2018-09-10T06:36:45.306Z,7.70
2018-09-10T06:39:13.265Z,8.87
2018-09-10T06:41:41.891Z,10.47
2018-09-10T06:44:10.569Z,10.47
2018-09-10T06:46:38.950Z,10.40
2018-09-10T06:49:07.774Z,12.17
2018-09-10T06:51:35.759Z,10.60
2018-09-10T06:54:03.725Z,10.00
2018-09-10T06:56:31.694Z,11.17
2018-09-10T06:58:59.615Z,12.50
2018-09-10T07:01:27.519Z,13.70
2018-09-10T07:03:56.358Z,17.43
2018-09-10T07:06:24.298Z,15.67
2018-09-10T07:08:52.194Z,15.83
2018-09-10T07:11:20.142Z,15.80
2018-09-10T07:13:48.128Z,14.80
2018-09-10T07:16:16.737Z,16.47
2018-09-10T07:18:44.787Z,16.43
2018-09-10T07:21:12.715Z,14.00
2018-09-10T07:23:40.615Z,12.47
2018-09-10T07:26:08.537Z,10.30
2018-09-10T07:28:36.442Z,10.57
2018-09-10T07:31:04.416Z,8.30
2018-09-10T07:33:32.350Z,7.40
2018-09-10T07:36:00.259Z,7.50
2018-09-10T07:38:28.186Z,6.73
2018-09-10T07:40:56.840Z,6.30
2018-09-10T08:01:26.265Z,4.80
2018-09-10T08:03:54.800Z,5.67
2018-09-10T08:06:22.710Z,4.80
2018-09-10T08:08:50.648Z,5.37
2018-09-10T08:11:18.719Z,5.57
2018-09-10T08:13:47.268Z,5.23
2018-09-10T08:16:15.426Z,5.13
2018-09-10T08:18:43.400Z,5.10
2018-09-10T08:21:13.077Z,5.43
2018-09-10T08:23:41.047Z,6.63
2018-09-10T08:26:08.973Z,5.03
2018-09-10T08:28:37.073Z,5.60
2018-09-10T08:31:05.452Z,4.90
2018-09-10T08:33:33.347Z,4.10
2018-09-10T08:36:01.309Z,5.00
2018-09-10T08:38:29.302Z,4.47
2018-09-10T08:40:57.288Z,5.20
2018-09-10T08:43:25.247Z,4.23
2018-09-10T08:45:53.209Z,4.10
2018-09-10T08:48:21.199Z,4.50
2018-09-10T08:50:49.103Z,4.60
2018-09-10T08:53:17.086Z,4.80
2018-09-10T08:55:45.910Z,5.63
2018-09-10T08:58:13.737Z,3.80
2018-09-10T09:00:41.674Z,4.63
2018-09-10T09:03:09.574Z,4.03
2018-09-10T09:05:37.510Z,3.70
2018-09-10T09:08:05.581Z,3.73
2018-09-10T09:10:34.127Z,3.70
2018-09-10T09:13:02.069Z,3.47
2018-09-10T09:15:30.705Z,3.60
2018-09-10T09:17:59.336Z,3.40
2018-09-10T09:20:27.288Z,3.93
2018-09-10T09:22:55.798Z,3.93
2018-09-10T09:25:24.076Z,5.13
2018-09-10T09:27:52.807Z,3.77
2018-09-10T09:30:20.910Z,3.83
2018-09-10T09:32:48.774Z,3.50
2018-09-10T09:35:16.762Z,10.10
2018-09-10T09:37:50.176Z,3.70
2018-09-10T09:40:23.746Z,3.80
2018-09-10T09:42:57.271Z,4.80
2018-09-10T09:46:34.966Z,3.10
2018-09-10T09:49:02.928Z,3.80
2018-09-10T09:51:30.853Z,3.60
2018-09-10T09:53:58.773Z,3.97
2018-09-10T09:56:27.057Z,3.87
2018-09-10T09:58:55.899Z,3.77
2018-09-10T10:01:29.357Z,3.97
2018-09-10T10:04:01.852Z,4.17
2018-09-10T10:06:30.060Z,4.33
2018-09-10T10:08:58.925Z,4.30
2018-09-10T10:11:26.838Z,4.40
2018-09-10T10:13:54.752Z,3.47
2018-09-10T10:16:22.697Z,3.57
2018-09-10T10:18:50.678Z,3.10
2018-09-10T10:21:18.624Z,3.70
2018-09-10T10:23:47.150Z,3.70
2018-09-10T10:26:15.065Z,4.00
2018-09-10T10:28:43.567Z,3.23
2018-09-10T10:31:11.488Z,3.50
2018-09-10T10:33:39.405Z,2.87
2018-09-10T10:36:07.413Z,3.37
2018-09-10T10:38:35.331Z,3.03
2018-09-10T10:41:03.509Z,3.37
2018-09-10T10:43:31.435Z,3.70
2018-09-10T10:45:59.392Z,3.57
2018-09-10T10:48:27.309Z,3.30
2018-09-10T10:50:55.330Z,3.43
2018-09-10T10:53:23.233Z,3.50
2018-09-10T10:55:51.429Z,3.07
2018-09-10T10:58:19.403Z,4.10
2018-09-10T11:00:47.395Z,3.10
2018-09-10T11:03:17.655Z,3.50
2018-09-10T11:05:45.587Z,3.07
2018-09-10T11:08:13.717Z,3.30
2018-09-10T11:10:41.661Z,3.03
2018-09-10T11:13:09.640Z,2.87
2018-09-10T11:15:37.550Z,3.60
2018-09-10T11:18:05.729Z,3.20
2018-09-10T11:20:33.639Z,3.50
2018-09-10T11:23:01.539Z,3.47
2018-09-10T11:25:30.145Z,3.13
2018-09-10T11:27:58.090Z,3.80
2018-09-10T11:30:26.015Z,3.63
2018-09-10T11:32:54.011Z,3.60
2018-09-10T11:35:22.328Z,4.23
2018-09-10T11:37:50.286Z,3.07
2018-09-10T11:40:18.301Z,3.40
2018-09-10T11:42:46.223Z,3.13
2018-09-10T11:45:14.118Z,3.40
2018-09-10T11:47:42.798Z,3.13
2018-09-10T11:50:11.390Z,3.43
2018-09-10T11:52:39.483Z,3.53
2018-09-10T11:55:07.472Z,4.00
2018-09-10T11:57:35.371Z,4.37
2018-09-10T12:00:03.758Z,3.40
2018-09-10T12:02:32.554Z,3.47
2018-09-10T12:05:00.557Z,4.30
2018-09-10T12:07:28.647Z,3.20
2018-09-10T12:09:57.115Z,4.07
2018-09-10T12:12:25.052Z,3.50
2018-09-10T12:14:53.014Z,3.30
2018-09-10T12:17:22.625Z,3.10
2018-09-10T12:19:51.241Z,3.43
2018-09-10T12:22:19.697Z,3.57
2018-09-10T12:24:47.625Z,4.13
2018-09-10T12:27:15.540Z,3.73
2018-09-10T12:29:43.387Z,3.80
2018-09-10T12:32:11.324Z,3.80
2018-09-10T12:34:39.256Z,3.60
2018-09-10T12:37:07.175Z,4.43
2018-09-10T12:39:35.101Z,3.43
2018-09-10T12:42:03.022Z,4.40
2018-09-10T12:44:31.851Z,3.57
2018-09-10T12:46:59.891Z,3.87
2018-09-10T12:49:28.575Z,4.00
2018-09-10T12:51:56.483Z,3.30
2018-09-10T12:54:24.397Z,4.17
2018-09-10T12:56:52.291Z,4.10
2018-09-10T12:59:20.195Z,3.60
2018-09-10T13:01:48.152Z,4.00
2018-09-10T13:04:16.106Z,4.43
2018-09-10T13:06:43.953Z,3.10
2018-09-10T13:09:11.884Z,3.60
2018-09-10T13:11:39.857Z,3.33
2018-09-10T13:14:07.776Z,4.03
2018-09-10T13:16:36.284Z,4.10
2018-09-10T13:19:04.236Z,2.70
2018-09-10T13:21:32.154Z,3.33
2018-09-10T13:24:00.337Z,3.20
2018-09-10T13:26:28.233Z,3.60
2018-09-10T13:28:56.620Z,3.33
2018-09-10T13:31:25.342Z,3.13
2018-09-10T13:33:53.329Z,3.60
2018-09-10T13:36:22.106Z,3.23
2018-09-10T13:38:50.165Z,2.90
2018-09-10T13:41:18.087Z,2.80
2018-09-10T13:43:45.993Z,3.63
2018-09-10T13:46:13.961Z,3.43
2018-09-10T13:48:41.836Z,3.03
2018-09-10T13:51:09.728Z,3.33
2018-09-10T13:53:37.922Z,3.40
2018-09-10T13:56:05.871Z,3.93
2018-09-10T13:58:33.777Z,3.70
2018-09-10T14:01:01.711Z,3.33
2018-09-10T14:03:29.631Z,3.43
2018-09-10T14:05:57.555Z,3.70
2018-09-10T14:08:25.482Z,3.27
2018-09-10T14:10:54.185Z,3.50
2018-09-10T14:13:22.113Z,3.20
2018-09-10T14:15:50.292Z,3.20
2018-09-10T14:18:18.264Z,3.50
2018-09-10T14:20:46.167Z,4.00
2018-09-10T14:23:14.133Z,3.10
2018-09-10T14:25:42.093Z,3.70
2018-09-10T14:28:10.061Z,3.47
2018-09-10T14:30:37.965Z,3.30
2018-09-10T14:33:06.212Z,3.37
2018-09-10T14:35:34.179Z,3.57
2018-09-10T14:38:02.061Z,4.00
2018-09-10T14:40:29.922Z,4.70
2018-09-10T14:42:57.820Z,3.73
2018-09-10T14:45:25.712Z,3.63
2018-09-10T14:47:53.642Z,3.20
2018-09-10T14:50:22.319Z,3.70
2018-09-10T14:52:50.502Z,3.60
2018-09-10T14:55:18.697Z,3.57
2018-09-10T14:57:46.614Z,3.50
2018-09-10T15:00:20.223Z,3.83
2018-09-10T15:02:48.204Z,3.97
2018-09-10T15:05:16.164Z,6.97
2018-09-10T15:07:44.411Z,4.00
2018-09-10T15:10:12.324Z,3.97
2018-09-10T15:12:40.526Z,4.07
2018-09-10T15:15:08.838Z,3.77
2018-09-10T15:17:36.767Z,3.80
2018-09-10T15:20:04.851Z,3.77
2018-09-10T15:22:32.878Z,4.10
2018-09-10T15:25:00.764Z,4.10
2018-09-10T15:27:28.637Z,3.70
2018-09-10T15:29:56.569Z,3.90
2018-09-10T15:32:24.434Z,3.80
2018-09-10T15:34:52.659Z,4.40
2018-09-10T15:37:21.121Z,3.43
2018-09-10T15:39:49.055Z,3.60
2018-09-10T15:42:16.967Z,3.83
2018-09-10T15:44:45.264Z,4.70
2018-09-10T15:47:13.178Z,4.80
2018-09-10T15:49:41.107Z,4.43
2018-09-10T15:52:09.034Z,3.97
2018-09-10T15:54:36.946Z,3.97
2018-09-10T15:57:04.886Z,4.00
2018-09-10T15:59:32.804Z,4.23
2018-09-10T16:02:00.702Z,4.10
2018-09-10T16:04:29.247Z,4.37
2018-09-10T16:06:57.164Z,3.73
2018-09-10T16:09:25.092Z,4.40
2018-09-10T16:11:53.005Z,4.40
2018-09-10T16:14:20.999Z,4.10
2018-09-10T16:16:49.332Z,3.93
2018-09-10T16:19:17.525Z,4.27
2018-09-10T16:21:45.433Z,4.13
2018-09-10T16:24:13.465Z,4.43
2018-09-10T16:26:41.348Z,4.40
2018-09-10T16:29:09.210Z,5.00
2018-09-10T16:31:37.399Z,5.20
2018-09-10T16:34:05.273Z,5.23
2018-09-10T16:36:33.137Z,4.50
2018-09-10T16:39:00.978Z,4.60
2018-09-10T16:41:28.881Z,4.60
2018-09-10T16:43:56.766Z,4.70
2018-09-10T16:46:25.302Z,4.20
2018-09-10T16:48:53.194Z,4.80
2018-09-10T16:51:21.130Z,4.97
2018-09-10T16:53:49.006Z,3.90
2018-09-10T16:56:16.885Z,4.87
2018-09-10T16:58:45.124Z,5.00
2018-09-10T17:01:13.140Z,4.60
2018-09-10T17:03:41.058Z,5.47
2018-09-10T17:06:08.922Z,4.80
2018-09-10T17:08:36.824Z,4.07
2018-09-10T17:11:06.061Z,4.33
2018-09-10T17:13:34.035Z,4.80
2018-09-10T17:16:01.937Z,5.40
2018-09-10T17:18:30.168Z,5.10
2018-09-10T17:20:58.199Z,5.87
2018-09-10T17:23:26.516Z,7.80
2018-09-10T17:25:55.179Z,9.00
2018-09-10T17:28:23.717Z,8.10
2018-09-10T17:30:52.751Z,6.97
2018-09-10T17:33:21.047Z,9.90
2018-09-10T17:35:49.334Z,17.47
2018-09-10T17:38:17.658Z,18.90
2018-09-10T17:40:46.340Z,16.83
2018-09-10T17:43:14.908Z,10.50
2018-09-10T17:45:43.767Z,13.63
2018-09-10T17:48:12.049Z,5.57
2018-09-10T17:50:41.195Z,6.07
2018-09-10T17:53:10.055Z,6.00
2018-09-10T17:55:37.997Z,6.23
2018-09-10T17:58:06.044Z,6.13
2018-09-10T18:00:38.634Z,28.87
2018-09-10T18:03:07.951Z,7.30
2018-09-10T18:05:35.869Z,7.37
2018-09-10T18:08:03.812Z,6.83
2018-09-10T18:10:32.659Z,5.67
2018-09-10T18:13:01.061Z,6.70
2018-09-10T18:15:30.217Z,6.30
2018-09-10T18:17:58.283Z,6.33
2018-09-10T18:20:26.852Z,6.40
2018-09-10T18:22:56.520Z,6.93
2018-09-10T18:25:25.364Z,5.87
2018-09-10T18:27:53.586Z,5.80
2018-09-10T18:30:21.731Z,6.67
2018-09-10T18:32:49.671Z,7.30
2018-09-10T18:35:18.216Z,6.87
2018-09-10T18:37:47.283Z,6.50
2018-09-10T18:40:16.239Z,6.13
2018-09-10T18:42:46.071Z,5.47
2018-09-10T18:45:15.289Z,5.93
2018-09-10T18:47:43.874Z,5.57
2018-09-10T18:50:12.218Z,5.40
2018-09-10T18:52:43.509Z,6.60
2018-09-10T18:55:12.547Z,5.50
2018-09-10T18:57:42.913Z,5.80
2018-09-10T19:00:12.587Z,5.47
2018-09-10T19:02:42.194Z,5.23
2018-09-10T19:05:10.390Z,6.00
2018-09-10T19:07:40.196Z,6.50
2018-09-10T19:10:09.450Z,6.27
2018-09-10T19:12:37.763Z,6.20
2018-09-10T19:15:07.017Z,5.87
2018-09-10T19:17:35.619Z,6.10
2018-09-10T19:20:03.762Z,6.40
2018-09-10T19:22:32.596Z,6.10
2018-09-10T19:25:00.677Z,6.93
2018-09-10T19:27:29.286Z,6.40
2018-09-10T19:29:58.073Z,5.30
2018-09-10T19:32:26.235Z,5.80
2018-09-10T19:34:54.410Z,5.33
2018-09-10T19:37:22.673Z,6.13
2018-09-10T19:39:51.016Z,5.70
2018-09-10T19:42:19.254Z,6.10
2018-09-10T19:44:49.457Z,5.87
2018-09-10T19:47:17.530Z,5.60
2018-09-10T19:49:46.171Z,5.50
2018-09-10T19:52:14.742Z,5.00
2018-09-10T19:54:42.693Z,4.97
2018-09-10T19:57:10.759Z,4.57
2018-09-10T19:59:39.342Z,4.40
2018-09-10T20:02:08.002Z,5.00
2018-09-10T20:04:36.326Z,7.27
2018-09-10T20:07:04.617Z,5.70
2018-09-10T20:09:32.505Z,5.83
2018-09-10T20:12:00.479Z,5.40
2018-09-10T20:14:29.329Z,6.10
2018-09-10T20:16:57.312Z,7.10
2018-09-10T20:19:25.895Z,5.77
2018-09-10T20:21:53.921Z,5.80
2018-09-10T20:24:21.846Z,6.10
2018-09-10T20:26:49.815Z,6.20
2018-09-10T20:29:17.756Z,6.90
2018-09-10T20:31:46.275Z,6.37
2018-09-10T20:34:14.177Z,5.80
2018-09-10T20:36:42.172Z,5.77
2018-09-10T20:39:11.487Z,5.97
2018-09-10T20:41:39.516Z,6.80
2018-09-10T20:44:07.518Z,5.17
2018-09-10T20:46:35.724Z,5.17
2018-09-10T20:49:03.693Z,6.10
2018-09-10T20:51:31.598Z,5.60
2018-09-10T20:53:59.492Z,5.27
2018-09-10T20:56:27.372Z,6.30
2018-09-10T20:58:55.266Z,5.17
2018-09-10T21:01:23.184Z,6.30
2018-09-10T21:03:51.193Z,6.37
2018-09-10T21:06:19.656Z,6.50
2018-09-10T21:08:47.709Z,6.07
2018-09-10T21:11:15.589Z,5.70
2018-09-10T21:13:43.467Z,6.00
2018-09-10T21:16:11.400Z,6.40
2018-09-10T21:18:39.305Z,5.80
2018-09-10T21:21:07.244Z,6.10
2018-09-10T21:23:35.154Z,6.43
2018-09-10T21:26:03.085Z,5.80
2018-09-10T21:28:31.014Z,7.53
2018-09-10T21:30:58.911Z,8.50
2018-09-10T21:33:27.117Z,7.33
2018-09-10T21:35:55.020Z,6.40
2018-09-10T21:38:22.937Z,6.50
2018-09-10T21:40:50.926Z,7.10
2018-09-10T21:43:19.461Z,6.20
2018-09-10T21:45:47.391Z,7.20
2018-09-10T21:48:15.274Z,6.73
2018-09-10T21:50:43.253Z,6.80
2018-09-10T21:53:11.126Z,7.57
2018-09-10T21:55:39.001Z,7.20
2018-09-10T21:58:06.931Z,6.63
2018-09-10T22:00:34.833Z,6.00
2018-09-10T22:03:03.004Z,6.23
2018-09-10T22:05:30.943Z,7.20
2018-09-10T22:07:58.844Z,6.63
2018-09-10T22:10:26.749Z,6.07
2018-09-10T22:12:55.029Z,6.20
2018-09-10T22:15:22.960Z,6.40
2018-09-10T22:17:50.916Z,5.53
2018-09-10T22:20:18.813Z,7.20
2018-09-10T22:22:46.754Z,6.50
2018-09-10T22:25:14.721Z,6.20
2018-09-10T22:27:42.619Z,7.00
2018-09-10T22:30:10.572Z,5.90
2018-09-10T22:32:38.491Z,6.37
2018-09-10T22:35:06.898Z,6.27
2018-09-10T22:37:34.799Z,6.60
2018-09-10T22:40:02.701Z,7.07
2018-09-10T22:42:30.621Z,6.90
2018-09-10T22:44:58.488Z,6.70
2018-09-10T22:47:26.390Z,6.10
2018-09-10T22:49:54.315Z,6.70
2018-09-10T22:52:22.831Z,7.03
2018-09-10T22:54:50.692Z,5.97
2018-09-10T22:57:18.593Z,7.50
2018-09-10T22:59:46.507Z,6.40
2018-09-10T23:02:15.079Z,6.30
2018-09-10T23:04:42.948Z,6.50
2018-09-10T23:07:10.800Z,6.27
2018-09-10T23:09:38.988Z,6.20
2018-09-10T23:12:06.857Z,5.87
2018-09-10T23:14:34.754Z,6.50
2018-09-10T23:17:02.739Z,6.53
2018-09-10T23:19:30.610Z,6.30
2018-09-10T23:21:58.858Z,5.20
2018-09-10T23:24:26.724Z,6.17
2018-09-10T23:26:54.581Z,5.67
2018-09-10T23:29:22.496Z,6.00
2018-09-10T23:31:50.371Z,5.70
2018-09-10T23:34:18.272Z,6.20
2018-09-10T23:36:46.158Z,6.17
2018-09-10T23:39:14.045Z,6.23
2018-09-10T23:41:41.954Z,7.10
2018-09-10T23:44:10.202Z,6.10
2018-09-10T23:46:38.092Z,6.27
2018-09-10T23:49:05.981Z,5.90
2018-09-10T23:51:33.829Z,6.23
2018-09-10T23:54:01.717Z,6.23
2018-09-10T23:56:29.675Z,6.07
2018-09-10T23:58:57.557Z,5.80
